createdAt,value
2023-03-29T00:01:34.965Z,60.35
2023-03-29T00:04:38.952Z,58.88
2023-03-29T00:07:42.524Z,59.30
2023-03-29T00:10:48.633Z,59.21
2023-03-29T00:13:51.090Z,59.20
2023-03-29T00:16:53.625Z,59.59
2023-03-29T00:19:56.085Z,60.55
2023-03-29T00:22:58.758Z,62.15
2023-03-29T00:26:01.139Z,63.23
2023-03-29T00:29:03.958Z,64.51
2023-03-29T00:32:06.521Z,65.62
2023-03-29T00:35:09.329Z,66.43
2023-03-29T00:38:11.757Z,68.76
2023-03-29T00:41:14.927Z,71.41
2023-03-29T00:44:35.797Z,73.17
2023-03-29T00:47:59.984Z,71.43
2023-03-29T00:51:09.770Z,72.30
2023-03-29T00:54:16.160Z,72.91
2023-03-29T00:57:20.909Z,73.41
2023-03-29T01:00:27.980Z,73.63
2023-03-29T01:03:33.984Z,73.68
2023-03-29T01:06:39.250Z,73.95
2023-03-29T01:09:43.606Z,74.11
2023-03-29T01:12:50.064Z,73.84
2023-03-29T01:15:54.291Z,74.30
2023-03-29T01:18:58.328Z,74.61
2023-03-29T01:22:22.619Z,75.51
2023-03-29T01:25:28.354Z,75.51
2023-03-29T01:28:36.329Z,73.50
2023-03-29T01:31:41.775Z,74.19
2023-03-29T01:34:44.191Z,73.47
2023-03-29T01:37:56.791Z,73.39
2023-03-29T01:40:59.174Z,74.48
2023-03-29T01:44:15.951Z,75.04
2023-03-29T01:47:38.589Z,74.66
2023-03-29T01:51:03.786Z,75.08
2023-03-29T01:54:10.091Z,74.68
2023-03-29T01:57:14.492Z,74.12
2023-03-29T02:00:19.229Z,73.52
2023-03-29T02:03:24.930Z,73.99
2023-03-29T02:06:31.846Z,74.30
2023-03-29T02:09:37.234Z,74.55
2023-03-29T02:12:40.345Z,74.55
2023-03-29T02:15:44.459Z,73.51
2023-03-29T02:18:48.855Z,73.99
2023-03-29T02:22:05.143Z,73.96
2023-03-29T02:25:09.497Z,73.66
2023-03-29T02:28:12.822Z,74.24
2023-03-29T02:31:21.263Z,74.47
2023-03-29T02:34:24.497Z,74.47
2023-03-29T02:37:30.380Z,74.69
2023-03-29T02:40:34.649Z,75.54
2023-03-29T02:43:40.328Z,75.80
2023-03-29T02:46:43.986Z,75.92
2023-03-29T02:49:48.114Z,76.00
2023-03-29T02:52:56.120Z,76.80
2023-03-29T02:56:02.249Z,77.65
2023-03-29T02:59:04.928Z,78.45
2023-03-29T03:02:07.588Z,78.88
2023-03-29T03:05:09.974Z,79.15
2023-03-29T03:08:13.998Z,79.38
2023-03-29T03:11:16.976Z,79.93
2023-03-29T03:14:22.850Z,80.83
2023-03-29T03:17:25.677Z,80.71
2023-03-29T03:20:28.390Z,81.16
2023-03-29T03:23:30.973Z,82.64
2023-03-29T03:26:35.932Z,83.27
2023-03-29T03:29:39.318Z,83.72
2023-03-29T03:32:44.743Z,83.39
2023-03-29T03:36:02.785Z,84.23
2023-03-29T03:39:07.354Z,85.32
2023-03-29T03:42:09.691Z,85.33
2023-03-29T03:45:14.697Z,85.99
2023-03-29T03:48:20.469Z,87.67
2023-03-29T03:51:23.387Z,87.41
2023-03-29T03:54:26.153Z,87.43
2023-03-29T03:57:30.299Z,87.55
2023-03-29T04:00:33.361Z,86.18
2023-03-29T04:03:39.897Z,85.73
2023-03-29T04:06:44.188Z,85.17
2023-03-29T04:09:53.025Z,85.12
2023-03-29T04:12:56.689Z,85.93
2023-03-29T04:16:01.688Z,86.49
2023-03-29T04:19:04.648Z,84.79
2023-03-29T04:22:07.252Z,83.76
2023-03-29T04:25:10.472Z,83.90
2023-03-29T04:28:15.521Z,84.28
2023-03-29T04:31:19.215Z,85.37
2023-03-29T04:34:23.322Z,86.55
2023-03-29T04:37:26.130Z,87.86
2023-03-29T04:40:29.150Z,87.91
2023-03-29T04:43:31.761Z,87.90
2023-03-29T04:46:34.691Z,87.54
2023-03-29T04:49:39.346Z,87.43
2023-03-29T04:52:45.377Z,87.30
2023-03-29T04:55:47.922Z,86.90
2023-03-29T04:58:51.293Z,85.89
2023-03-29T05:01:54.716Z,86.27
2023-03-29T05:04:57.543Z,86.04
2023-03-29T05:08:00.122Z,86.88
2023-03-29T05:11:03.938Z,86.12
2023-03-29T05:14:08.673Z,85.63
2023-03-29T05:17:11.324Z,83.98
2023-03-29T05:20:13.942Z,82.49
2023-03-29T05:23:17.535Z,82.26
2023-03-29T05:26:25.491Z,80.67
2023-03-29T05:29:32.800Z,78.19
2023-03-29T05:32:37.270Z,76.32
2023-03-29T05:35:40.103Z,74.96
2023-03-29T05:38:46.764Z,72.27
2023-03-29T05:41:50.066Z,64.75
2023-03-29T05:44:54.607Z,67.12
2023-03-29T05:47:57.986Z,62.57
2023-03-29T05:51:00.574Z,62.68
2023-03-29T05:54:03.586Z,61.63
2023-03-29T05:57:06.322Z,58.37
2023-03-29T06:00:24.252Z,57.72
2023-03-29T06:03:27.863Z,58.23
2023-03-29T06:06:31.699Z,57.37
2023-03-29T06:09:34.533Z,58.35
2023-03-29T06:12:37.728Z,56.21
2023-03-29T06:15:41.417Z,55.96
2023-03-29T06:18:44.905Z,55.12
2023-03-29T06:21:47.696Z,53.99
2023-03-29T06:24:51.180Z,52.53
2023-03-29T06:27:56.929Z,52.25
2023-03-29T06:31:02.623Z,51.99
2023-03-29T06:34:07.631Z,51.29
2023-03-29T06:37:12.946Z,50.93
2023-03-29T06:40:21.207Z,48.46
2023-03-29T06:43:23.914Z,48.92
2023-03-29T06:46:27.520Z,50.29
2023-03-29T06:49:29.909Z,48.98
2023-03-29T06:52:32.850Z,48.94
2023-03-29T06:55:36.100Z,48.10
2023-03-29T06:58:42.667Z,47.63
2023-03-29T07:01:47.300Z,47.94
2023-03-29T07:04:50.252Z,48.21
2023-03-29T07:07:57.149Z,46.38
2023-03-29T07:11:01.556Z,45.55
2023-03-29T07:14:05.770Z,44.60
2023-03-29T07:17:08.589Z,44.11
2023-03-29T07:20:14.213Z,43.60
2023-03-29T07:23:18.123Z,44.35
2023-03-29T07:26:28.920Z,44.86
2023-03-29T07:29:32.969Z,43.98
2023-03-29T07:32:36.363Z,45.00
2023-03-29T07:35:43.398Z,43.55
2023-03-29T07:38:45.899Z,43.23
2023-03-29T07:41:49.413Z,40.36
2023-03-29T07:44:56.272Z,37.61
2023-03-29T07:47:59.547Z,36.15
2023-03-29T07:51:02.656Z,36.71
2023-03-29T07:54:06.715Z,36.62
2023-03-29T07:57:11.661Z,36.41
2023-03-29T08:00:19.632Z,35.54
2023-03-29T08:03:23.649Z,35.11
2023-03-29T08:06:27.490Z,34.70
2023-03-29T08:09:30.373Z,34.83
2023-03-29T08:12:32.760Z,34.25
2023-03-29T08:15:37.846Z,34.60
2023-03-29T08:18:41.385Z,34.90
2023-03-29T08:21:44.350Z,34.47
2023-03-29T08:24:47.143Z,33.79
2023-03-29T08:27:50.379Z,31.96
2023-03-29T08:30:53.778Z,31.87
2023-03-29T08:33:57.311Z,32.67
2023-03-29T08:37:02.161Z,32.11
2023-03-29T08:40:05.703Z,29.87
2023-03-29T08:43:09.800Z,26.66
2023-03-29T08:46:35.306Z,24.97
2023-03-29T08:49:42.608Z,25.02
2023-03-29T08:52:48.464Z,24.88
2023-03-29T08:55:53.445Z,27.67
2023-03-29T08:58:57.554Z,28.34
2023-03-29T09:02:02.341Z,30.02
2023-03-29T09:05:18.266Z,31.16
2023-03-29T09:08:21.914Z,31.89
2023-03-29T09:11:24.904Z,30.45
2023-03-29T09:14:33.496Z,33.07
2023-03-29T09:17:36.108Z,33.22
2023-03-29T09:20:47.856Z,32.67
2023-03-29T09:23:52.574Z,33.39
2023-03-29T09:27:19.160Z,32.21
2023-03-29T09:30:29.058Z,32.25
2023-03-29T09:33:37.324Z,30.13
2023-03-29T09:36:52.532Z,32.32
2023-03-29T09:39:56.844Z,31.40
2023-03-29T09:43:02.252Z,31.45
2023-03-29T09:46:07.066Z,32.46
2023-03-29T09:49:12.587Z,33.20
2023-03-29T09:52:16.906Z,31.98
2023-03-29T09:55:22.381Z,31.37
2023-03-29T09:58:27.565Z,31.23
2023-03-29T10:01:38.573Z,32.56
2023-03-29T10:04:42.930Z,31.17
2023-03-29T10:07:47.184Z,32.22
2023-03-29T10:10:49.965Z,31.28
2023-03-29T10:13:55.041Z,30.83
2023-03-29T10:16:57.810Z,29.67
2023-03-29T10:20:04.387Z,30.34
2023-03-29T10:23:08.342Z,31.53
2023-03-29T10:26:16.722Z,30.95
2023-03-29T10:29:19.591Z,32.75
2023-03-29T10:32:22.856Z,30.88
2023-03-29T10:35:29.607Z,30.94
2023-03-29T10:38:32.180Z,31.50
2023-03-29T10:41:35.587Z,31.40
2023-03-29T10:44:38.668Z,31.67
2023-03-29T10:47:44.748Z,31.74
2023-03-29T10:50:53.020Z,32.56
2023-03-29T10:53:59.269Z,32.71
2023-03-29T10:57:05.226Z,32.52
2023-03-29T11:00:20.400Z,32.60
2023-03-29T11:03:32.312Z,33.30
2023-03-29T11:06:41.078Z,32.92
2023-03-29T11:10:07.196Z,33.58
2023-03-29T11:13:18.617Z,32.82
2023-03-29T11:16:32.921Z,33.40
2023-03-29T11:19:44.470Z,33.56
2023-03-29T11:22:53.384Z,33.16
2023-03-29T11:25:59.127Z,33.53
2023-03-29T11:29:16.110Z,32.98
2023-03-29T11:32:28.530Z,32.96
2023-03-29T11:35:49.058Z,32.92
2023-03-29T11:39:04.280Z,33.25
2023-03-29T11:42:09.485Z,33.48
2023-03-29T11:45:28.621Z,33.96
2023-03-29T11:48:38.506Z,34.55
2023-03-29T11:51:44.077Z,32.93
2023-03-29T11:54:49.250Z,32.32
2023-03-29T11:58:04.883Z,32.11
2023-03-29T12:01:10.261Z,32.43
2023-03-29T12:04:22.484Z,32.13
2023-03-29T12:07:32.229Z,33.34
2023-03-29T12:10:37.859Z,33.90
2023-03-29T12:13:44.522Z,33.33
2023-03-29T12:16:49.570Z,32.81
2023-03-29T12:20:02.415Z,33.00
2023-03-29T12:23:10.922Z,32.46
2023-03-29T12:26:17.177Z,33.46
2023-03-29T12:29:32.221Z,33.55
2023-03-29T12:32:37.814Z,33.80
2023-03-29T12:36:00.416Z,33.22
2023-03-29T12:39:16.009Z,32.26
2023-03-29T12:42:21.710Z,32.94
2023-03-29T12:45:34.982Z,32.47
2023-03-29T12:48:38.685Z,33.77
2023-03-29T12:51:41.864Z,32.92
2023-03-29T12:54:52.383Z,33.64
2023-03-29T12:58:02.495Z,33.39
2023-03-29T13:01:06.111Z,34.48
2023-03-29T13:04:22.448Z,34.09
2023-03-29T13:07:27.926Z,34.66
2023-03-29T13:10:35.518Z,35.08
2023-03-29T13:13:39.514Z,34.65
2023-03-29T13:16:42.855Z,34.98
2023-03-29T13:19:45.825Z,35.01
2023-03-29T13:22:48.129Z,35.20
2023-03-29T13:25:50.839Z,34.86
2023-03-29T13:28:53.141Z,34.84
2023-03-29T13:31:59.556Z,34.70
2023-03-29T13:35:11.628Z,34.20
2023-03-29T13:38:33.260Z,34.53
2023-03-29T13:41:38.615Z,34.26
2023-03-29T13:44:46.099Z,36.11
2023-03-29T13:47:58.782Z,36.27
2023-03-29T13:51:20.625Z,35.16
2023-03-29T13:54:23.182Z,34.55
2023-03-29T13:57:32.663Z,34.15
2023-03-29T14:00:40.070Z,33.56
2023-03-29T14:03:46.925Z,34.00
2023-03-29T14:06:51.768Z,33.62
2023-03-29T14:09:55.627Z,31.83
2023-03-29T14:13:02.677Z,31.85
2023-03-29T14:16:09.074Z,32.60
2023-03-29T14:19:19.203Z,32.58
2023-03-29T14:22:21.992Z,32.96
2023-03-29T14:25:24.388Z,34.50
2023-03-29T14:28:28.528Z,34.72
2023-03-29T14:31:35.819Z,35.45
2023-03-29T14:34:39.506Z,35.49
2023-03-29T14:37:42.244Z,36.21
2023-03-29T14:40:45.217Z,36.19
2023-03-29T14:43:47.640Z,36.57
2023-03-29T14:46:50.439Z,36.70
2023-03-29T14:49:54.477Z,38.10
2023-03-29T14:52:58.484Z,37.32
2023-03-29T14:56:02.213Z,37.71
2023-03-29T14:59:05.102Z,37.75
2023-03-29T15:02:22.476Z,38.16
2023-03-29T15:05:34.035Z,39.06
2023-03-29T15:08:38.107Z,37.82
2023-03-29T15:11:40.809Z,38.68
2023-03-29T15:14:43.209Z,38.20
2023-03-29T15:17:51.216Z,39.48
2023-03-29T15:20:55.084Z,39.95
2023-03-29T15:23:58.770Z,40.48
2023-03-29T15:27:03.511Z,40.62
2023-03-29T15:30:14.857Z,39.79
2023-03-29T15:33:21.350Z,39.75
2023-03-29T15:36:24.132Z,40.27
2023-03-29T15:39:27.843Z,40.25
2023-03-29T15:42:31.485Z,40.83
2023-03-29T15:45:33.815Z,41.19
2023-03-29T15:48:36.677Z,41.76
2023-03-29T15:51:39.267Z,41.24
2023-03-29T15:54:42.472Z,41.59
2023-03-29T15:57:46.643Z,41.66
2023-03-29T16:00:53.882Z,42.15
2023-03-29T16:03:57.849Z,42.02
2023-03-29T16:07:01.227Z,42.40
2023-03-29T16:10:06.021Z,42.05
2023-03-29T16:13:10.565Z,42.33
2023-03-29T16:16:13.274Z,42.28
2023-03-29T16:19:15.877Z,42.74
2023-03-29T16:22:18.530Z,43.16
2023-03-29T16:25:22.835Z,43.71
2023-03-29T16:28:25.466Z,43.26
2023-03-29T16:31:31.027Z,43.73
2023-03-29T16:34:33.825Z,43.58
2023-03-29T16:37:36.124Z,43.35
2023-03-29T16:40:38.959Z,43.00
2023-03-29T16:43:41.357Z,43.31
2023-03-29T16:46:44.614Z,43.41
2023-03-29T16:49:48.652Z,44.18
2023-03-29T16:52:54.090Z,44.74
2023-03-29T16:55:57.426Z,45.05
2023-03-29T16:59:00.127Z,45.72
2023-03-29T17:02:02.710Z,46.10
2023-03-29T17:05:06.109Z,46.61
2023-03-29T17:08:10.216Z,47.58
2023-03-29T17:11:13.121Z,47.74
2023-03-29T17:14:15.705Z,47.82
2023-03-29T17:17:18.680Z,48.63
2023-03-29T17:20:21.088Z,49.18
2023-03-29T17:23:24.378Z,49.15
2023-03-29T17:26:26.771Z,49.52
2023-03-29T17:29:29.766Z,49.93
2023-03-29T17:32:32.394Z,50.48
2023-03-29T17:35:35.085Z,51.42
2023-03-29T17:38:38.063Z,51.01
2023-03-29T17:41:40.950Z,51.80
2023-03-29T17:44:43.557Z,52.91
2023-03-29T17:47:46.362Z,53.09
2023-03-29T17:50:48.707Z,54.11
2023-03-29T17:53:52.476Z,54.77
2023-03-29T17:56:54.808Z,55.20
2023-03-29T17:59:57.442Z,56.21
2023-03-29T18:03:00.794Z,56.77
2023-03-29T18:06:04.279Z,57.60
2023-03-29T18:09:07.103Z,58.95
2023-03-29T18:12:09.849Z,60.01
2023-03-29T18:15:12.192Z,60.21
2023-03-29T18:18:14.892Z,60.65
2023-03-29T18:21:17.952Z,61.25
2023-03-29T18:24:20.647Z,62.17
2023-03-29T18:27:23.088Z,62.32
2023-03-29T18:30:25.670Z,62.65
2023-03-29T18:33:30.247Z,62.95
2023-03-29T18:36:32.882Z,63.15
2023-03-29T18:39:35.753Z,63.22
2023-03-29T18:42:38.477Z,63.46
2023-03-29T18:45:40.847Z,64.53
2023-03-29T18:48:43.510Z,64.61
2023-03-29T18:51:47.621Z,65.16
2023-03-29T18:54:50.491Z,66.35
2023-03-29T18:57:52.859Z,65.85
2023-03-29T19:00:59.775Z,66.38
2023-03-29T19:04:02.178Z,65.88
2023-03-29T19:07:04.799Z,67.23
2023-03-29T19:10:08.386Z,66.85
2023-03-29T19:13:11.120Z,66.99
2023-03-29T19:16:13.634Z,67.68
2023-03-29T19:19:16.481Z,67.54
2023-03-29T19:22:19.098Z,68.46
2023-03-29T19:25:21.793Z,68.69
2023-03-29T19:28:24.418Z,68.37
2023-03-29T19:31:27.529Z,68.54
2023-03-29T19:34:30.521Z,68.54
2023-03-29T19:37:33.190Z,68.49
2023-03-29T19:40:36.520Z,68.83
2023-03-29T19:43:39.109Z,69.24
2023-03-29T19:46:41.938Z,69.58
2023-03-29T19:49:46.530Z,70.38
2023-03-29T19:52:49.100Z,70.00
2023-03-29T19:55:52.466Z,70.11
2023-03-29T19:58:54.988Z,69.93
2023-03-29T20:01:57.647Z,70.42
2023-03-29T20:05:01.641Z,70.04
2023-03-29T20:08:04.283Z,70.50
2023-03-29T20:11:10.365Z,70.74
2023-03-29T20:14:13.238Z,70.55
2023-03-29T20:17:15.970Z,70.96
2023-03-29T20:20:18.537Z,71.39
2023-03-29T20:23:21.255Z,69.60
2023-03-29T20:26:24.254Z,70.39
2023-03-29T20:29:28.285Z,70.71
2023-03-29T20:32:31.737Z,71.00
2023-03-29T20:35:34.701Z,71.55
2023-03-29T20:38:37.144Z,71.79
2023-03-29T20:41:40.267Z,71.72
2023-03-29T20:44:50.591Z,72.96
2023-03-29T20:47:57.913Z,72.51
2023-03-29T20:51:03.008Z,73.06
2023-03-29T20:54:06.083Z,73.62
2023-03-29T20:57:10.095Z,73.92
2023-03-29T21:00:12.960Z,73.75
2023-03-29T21:03:15.379Z,73.77
2023-03-29T21:06:19.290Z,73.54
2023-03-29T21:09:22.273Z,73.49
2023-03-29T21:12:25.564Z,73.40
2023-03-29T21:15:34.413Z,72.96
2023-03-29T21:18:38.728Z,72.77
2023-03-29T21:21:41.530Z,73.64
2023-03-29T21:24:44.371Z,73.84
2023-03-29T21:27:46.847Z,73.80
2023-03-29T21:30:49.948Z,73.70
2023-03-29T21:33:54.744Z,72.69
2023-03-29T21:36:57.259Z,72.70
2023-03-29T21:39:59.624Z,73.29
2023-03-29T21:43:02.206Z,73.04
2023-03-29T21:46:04.905Z,73.27
2023-03-29T21:49:07.813Z,73.45
2023-03-29T21:52:10.894Z,74.28
2023-03-29T21:55:13.601Z,73.94
2023-03-29T21:58:16.311Z,74.92
2023-03-29T22:01:19.000Z,74.61
2023-03-29T22:04:33.582Z,74.86
2023-03-29T22:07:41.503Z,75.33
2023-03-29T22:10:44.135Z,74.59
2023-03-29T22:13:46.692Z,74.57
2023-03-29T22:16:49.480Z,74.36
2023-03-29T22:19:52.339Z,73.90
2023-03-29T22:22:55.680Z,74.53
2023-03-29T22:25:57.992Z,74.63
2023-03-29T22:29:00.854Z,74.55
2023-03-29T22:32:03.565Z,74.67
2023-03-29T22:35:06.508Z,75.25
2023-03-29T22:38:08.850Z,76.31
2023-03-29T22:41:12.229Z,76.49
2023-03-29T22:44:14.519Z,76.40
2023-03-29T22:47:17.619Z,76.16
2023-03-29T22:50:19.932Z,76.42
2023-03-29T22:53:22.525Z,77.59
2023-03-29T22:56:24.913Z,77.24
2023-03-29T22:59:27.665Z,77.71
2023-03-29T23:02:30.001Z,76.78
2023-03-29T23:05:32.935Z,76.88
2023-03-29T23:08:35.363Z,76.52
2023-03-29T23:11:37.962Z,77.28
2023-03-29T23:14:42.762Z,77.53
2023-03-29T23:17:45.457Z,78.13
2023-03-29T23:20:48.521Z,79.24
2023-03-29T23:23:51.183Z,79.57
2023-03-29T23:26:55.260Z,80.35
2023-03-29T23:29:59.570Z,79.75
2023-03-29T23:33:02.540Z,79.50
2023-03-29T23:36:08.952Z,78.13
2023-03-29T23:39:11.533Z,79.12
2023-03-29T23:42:14.229Z,79.86
2023-03-29T23:45:20.735Z,80.33
2023-03-29T23:48:24.011Z,79.70
2023-03-29T23:51:28.420Z,79.46
2023-03-29T23:54:34.436Z,80.01
2023-03-29T23:57:37.190Z,80.32
